Time,TemperatureF,DewpointF,PressureIn,WindDirection,WindDirectionDegrees,WindSpeedMPH,WindSpeedGustMPH,Humidity,HourlyPrecipIn,Conditions,Clouds,dailyrainin,SoftwareType,DateUTC
2013-04-28 00:04:00,51.8,47.7,30.01,NW,315,0.0,0.4,86,0.00,,,0.00,WUHU216HW,2013-04-28 07:04:00,
2013-04-28 00:10:00,51.7,47.0,30.02,NW,315,0.0,0.4,84,0.00,,,0.00,WUHU216HW,2013-04-28 07:10:00,
2013-04-28 00:15:00,51.5,46.4,30.02,NW,315,0.4,0.4,83,0.00,,,0.00,WUHU216HW,2013-04-28 07:15:00,
2013-04-28 00:20:00,51.5,46.4,30.02,NW,315,0.0,0.4,83,0.00,,,0.00,WUHU216HW,2013-04-28 07:20:00,
2013-04-28 00:25:00,51.3,46.0,30.02,NW,315,0.0,0.0,82,0.00,,,0.00,WUHU216HW,2013-04-28 07:25:00,
2013-04-28 00:30:00,51.1,45.8,30.02,NW,315,0.0,0.0,82,0.00,,,0.00,WUHU216HW,2013-04-28 07:30:00,
2013-04-28 00:35:00,50.9,45.9,30.02,NW,315,0.0,0.4,83,0.00,,,0.00,WUHU216HW,2013-04-28 07:35:00,
2013-04-28 00:40:00,50.8,46.1,30.02,WNW,293,0.0,0.4,84,0.00,,,0.00,WUHU216HW,2013-04-28 07:40:00,
2013-04-28 00:45:00,50.8,46.4,30.02,WNW,293,0.0,0.4,85,0.00,,,0.00,WUHU216HW,2013-04-28 07:45:00,
2013-04-28 00:50:00,50.6,46.4,30.02,NW,315,0.0,0.4,86,0.00,,,0.00,WUHU216HW,2013-04-28 07:50:00,
2013-04-28 00:55:00,50.6,46.4,30.02,NW,315,0.0,0.2,86,0.00,,,0.00,WUHU216HW,2013-04-28 07:55:00,
2013-04-28 01:00:00,50.4,46.0,30.01,NW,315,0.0,0.2,85,0.00,,,0.00,WUHU216HW,2013-04-28 08:00:00,
2013-04-28 01:05:00,50.4,45.7,30.02,NW,315,0.0,0.0,84,0.00,,,0.00,WUHU216HW,2013-04-28 08:05:00,
2013-04-28 01:10:00,50.2,45.6,30.01,NW,315,0.0,0.0,84,0.00,,,0.00,WUHU216HW,2013-04-28 08:10:00,
2013-04-28 01:15:00,50.0,45.4,30.01,NW,315,0.0,0.0,84,0.00,,,0.00,WUHU216HW,2013-04-28 08:15:00,
2013-04-28 01:20:00,50.0,45.4,30.01,NW,315,0.0,0.0,84,0.00,,,0.00,WUHU216HW,2013-04-28 08:20:00,
2013-04-28 01:25:00,49.9,45.2,30.01,NW,315,0.0,0.0,84,0.00,,,0.00,WUHU216HW,2013-04-28 08:25:00,
2013-04-28 01:30:00,49.7,44.6,30.01,NW,315,0.0,0.0,83,0.00,,,0.00,WUHU216HW,2013-04-28 08:30:00,
2013-04-28 01:35:00,49.7,45.0,30.01,NW,315,0.0,0.0,84,0.00,,,0.00,WUHU216HW,2013-04-28 08:35:00,
2013-04-28 01:41:00,49.5,44.5,30.01,NW,315,0.0,0.0,83,0.00,,,0.00,WUHU216HW,2013-04-28 08:41:00,
2013-04-28 01:46:00,49.3,44.3,30.01,WNW,293,0.0,0.0,83,0.00,,,0.00,WUHU216HW,2013-04-28 08:46:00,
2013-04-28 01:51:00,49.3,44.3,30.01,WNW,293,0.0,0.2,83,0.00,,,0.00,WUHU216HW,2013-04-28 08:51:00,
2013-04-28 01:56:00,49.3,44.3,30.01,WNW,293,0.0,0.2,83,0.00,,,0.00,WUHU216HW,2013-04-28 08:56:00,
2013-04-28 02:01:00,49.1,44.1,30.01,WNW,293,0.0,0.0,83,0.00,,,0.00,WUHU216HW,2013-04-28 09:01:00,
2013-04-28 02:06:00,49.1,44.1,30.00,NNW,338,0.0,0.4,83,0.00,,,0.00,WUHU216HW,2013-04-28 09:06:00,
2013-04-28 02:11:00,49.1,44.1,30.00,NNW,338,0.0,0.4,83,0.00,,,0.00,WUHU216HW,2013-04-28 09:11:00,
2013-04-28 02:16:00,49.1,44.1,30.00,NNW,338,0.0,0.0,83,0.00,,,0.00,WUHU216HW,2013-04-28 09:16:00,
2013-04-28 02:21:00,49.1,44.5,29.99,NW,315,0.0,0.0,84,0.00,,,0.00,WUHU216HW,2013-04-28 09:21:00,
2013-04-28 02:26:00,49.0,44.3,30.00,NW,315,0.0,0.0,84,0.00,,,0.00,WUHU216HW,2013-04-28 09:26:00,
2013-04-28 02:31:00,48.8,44.1,30.00,NW,315,0.0,0.0,84,0.00,,,0.00,WUHU216HW,2013-04-28 09:31:00,
2013-04-28 02:36:00,48.8,43.8,29.99,NNW,338,0.0,0.2,83,0.00,,,0.00,WUHU216HW,2013-04-28 09:36:00,
2013-04-28 02:41:00,48.8,44.1,29.99,NNW,338,0.0,0.2,84,0.00,,,0.00,WUHU216HW,2013-04-28 09:41:00,
2013-04-28 02:46:00,48.6,43.9,29.99,NNW,338,0.0,0.0,84,0.00,,,0.00,WUHU216HW,2013-04-28 09:46:00,
2013-04-28 02:51:00,48.6,43.9,29.99,NNW,338,0.0,0.2,84,0.00,,,0.00,WUHU216HW,2013-04-28 09:51:00,
2013-04-28 02:56:00,48.6,43.9,29.99,NNW,338,0.0,0.2,84,0.00,,,0.00,WUHU216HW,2013-04-28 09:56:00,
2013-04-28 03:01:00,48.6,43.9,29.99,NNW,338,0.0,0.0,84,0.00,,,0.00,WUHU216HW,2013-04-28 10:01:00,
2013-04-28 03:06:00,48.6,44.3,29.99,NNW,338,0.0,0.0,85,0.00,,,0.00,WUHU216HW,2013-04-28 10:06:00,
2013-04-28 03:11:00,48.6,44.3,29.99,NNW,338,0.0,0.0,85,0.00,,,0.00,WUHU216HW,2013-04-28 10:11:00,
2013-04-28 03:16:00,48.4,44.1,29.99,NNW,338,0.0,0.0,85,0.00,,,0.00,WUHU216HW,2013-04-28 10:16:00,
2013-04-28 03:22:00,48.4,44.1,29.99,NNW,338,0.0,0.0,85,0.00,,,0.00,WUHU216HW,2013-04-28 10:22:00,
2013-04-28 03:27:00,48.2,43.9,29.99,NNW,338,0.0,0.0,85,0.00,,,0.00,WUHU216HW,2013-04-28 10:27:00,
2013-04-28 03:32:00,48.2,43.9,29.98,NNW,338,0.0,0.0,85,0.00,,,0.00,WUHU216HW,2013-04-28 10:32:00,
2013-04-28 03:37:00,48.2,43.9,29.99,NNW,338,0.0,0.0,85,0.00,,,0.00,WUHU216HW,2013-04-28 10:37:00,
2013-04-28 03:42:00,48.1,43.7,29.98,NNW,338,0.0,0.0,85,0.00,,,0.00,WUHU216HW,2013-04-28 10:42:00,
2013-04-28 03:47:00,47.9,43.6,29.98,NNW,338,0.0,0.0,85,0.00,,,0.00,WUHU216HW,2013-04-28 10:47:00,
2013-04-28 03:52:00,47.9,43.6,29.98,NNW,338,0.0,0.0,85,0.00,,,0.00,WUHU216HW,2013-04-28 10:52:00,
2013-04-28 03:57:00,47.9,43.6,29.98,NNW,338,0.0,0.0,85,0.00,,,0.00,WUHU216HW,2013-04-28 10:57:00,
2013-04-28 04:02:00,48.1,44.1,29.98,NNW,338,0.0,0.2,86,0.00,,,0.00,WUHU216HW,2013-04-28 11:02:00,
2013-04-28 04:07:00,48.1,44.1,29.98,NNW,338,0.0,0.2,86,0.00,,,0.00,WUHU216HW,2013-04-28 11:07:00,
2013-04-28 04:12:00,47.9,43.9,29.98,NNW,338,0.0,0.2,86,0.00,,,0.00,WUHU216HW,2013-04-28 11:12:00,
2013-04-28 04:17:00,47.9,43.9,29.98,NNW,338,0.0,0.2,86,0.00,,,0.00,WUHU216HW,2013-04-28 11:17:00,
2013-04-28 04:22:00,47.9,43.9,29.98,NNW,338,0.0,0.0,86,0.00,,,0.00,WUHU216HW,2013-04-28 11:22:00,
2013-04-28 04:27:00,47.7,43.8,29.98,NNW,338,0.0,0.0,86,0.00,,,0.00,WUHU216HW,2013-04-28 11:27:00,
2013-04-28 04:32:00,47.7,43.8,29.98,NNW,338,0.0,0.0,86,0.00,,,0.00,WUHU216HW,2013-04-28 11:32:00,
2013-04-28 04:37:00,47.5,43.6,29.97,NNW,338,0.4,0.4,86,0.00,,,0.00,WUHU216HW,2013-04-28 11:37:00,
2013-04-28 04:42:00,47.5,43.6,29.97,East,90,0.4,0.7,86,0.00,,,0.00,WUHU216HW,2013-04-28 11:42:00,
2013-04-28 04:47:00,47.3,43.4,29.97,East,90,0.2,0.7,86,0.00,,,0.00,WUHU216HW,2013-04-28 11:47:00,
2013-04-28 04:52:00,47.3,43.4,29.97,East,90,0.0,0.4,86,0.00,,,0.00,WUHU216HW,2013-04-28 11:52:00,
2013-04-28 04:57:00,47.3,43.4,29.97,East,90,0.0,0.4,86,0.00,,,0.00,WUHU216HW,2013-04-28 11:57:00,
2013-04-28 05:03:00,47.3,43.4,29.97,East,90,0.0,0.2,86,0.00,,,0.00,WUHU216HW,2013-04-28 12:03:00,
2013-04-28 05:08:00,47.3,43.4,29.97,East,90,0.0,0.2,86,0.00,,,0.00,WUHU216HW,2013-04-28 12:08:00,
2013-04-28 05:13:00,47.5,43.6,29.97,East,90,0.2,0.2,86,0.00,,,0.00,WUHU216HW,2013-04-28 12:13:00,
2013-04-28 05:18:00,47.5,43.8,29.97,East,90,0.7,0.7,87,0.00,,,0.00,WUHU216HW,2013-04-28 12:18:00,
2013-04-28 05:23:00,47.9,44.2,29.97,ESE,113,0.2,0.7,87,0.00,,,0.00,WUHU216HW,2013-04-28 12:23:00,
2013-04-28 05:28:00,47.9,44.2,29.97,ESE,113,0.2,0.4,87,0.00,,,0.00,WUHU216HW,2013-04-28 12:28:00,
2013-04-28 05:33:00,48.2,44.6,29.97,ESE,113,0.0,0.4,87,0.00,,,0.00,WUHU216HW,2013-04-28 12:33:00,
2013-04-28 05:38:00,48.6,45.2,29.97,SSW,203,0.0,0.9,88,0.00,,,0.00,WUHU216HW,2013-04-28 12:38:00,
2013-04-28 05:43:00,49.0,45.5,29.97,SSW,203,0.4,0.9,88,0.00,,,0.00,WUHU216HW,2013-04-28 12:43:00,
2013-04-28 05:48:00,49.1,45.7,29.97,SSW,203,0.0,0.7,88,0.00,,,0.00,WUHU216HW,2013-04-28 12:48:00,
2013-04-28 05:53:00,49.5,46.1,29.97,SSW,203,0.2,0.7,88,0.00,,,0.00,WUHU216HW,2013-04-28 12:53:00,
2013-04-28 05:58:00,49.7,46.5,29.97,SSW,203,0.4,0.7,89,0.00,,,0.00,WUHU216HW,2013-04-28 12:58:00,
2013-04-28 06:03:00,49.9,46.7,29.97,SSW,203,0.0,0.4,89,0.00,,,0.00,WUHU216HW,2013-04-28 13:03:00,
2013-04-28 06:08:00,49.9,46.7,29.97,SSW,203,0.0,0.4,89,0.00,,,0.00,WUHU216HW,2013-04-28 13:08:00,
2013-04-28 06:13:00,50.0,46.9,29.97,SSW,203,0.9,0.9,89,0.00,,,0.00,WUHU216HW,2013-04-28 13:13:00,
2013-04-28 06:18:00,50.0,46.9,29.97,SSW,203,0.0,1.1,89,0.00,,,0.00,WUHU216HW,2013-04-28 13:18:00,
2013-04-28 06:23:00,50.0,46.9,29.97,SSW,203,0.0,1.1,89,0.00,,,0.00,WUHU216HW,2013-04-28 13:23:00,
2013-04-28 06:28:00,50.0,46.9,29.97,SSW,203,0.0,0.7,89,0.00,,,0.00,WUHU216HW,2013-04-28 13:28:00,
2013-04-28 06:33:00,50.2,47.1,29.97,SSW,203,0.0,0.7,89,0.00,,,0.00,WUHU216HW,2013-04-28 13:33:00,
2013-04-28 06:38:00,50.0,46.9,29.98,NE,45,0.0,1.1,89,0.00,,,0.00,WUHU216HW,2013-04-28 13:38:00,
2013-04-28 06:43:00,50.2,46.7,29.98,NNE,23,0.0,1.1,88,0.00,,,0.00,WUHU216HW,2013-04-28 13:43:00,
2013-04-28 06:48:00,50.4,46.9,29.98,NW,315,0.2,0.2,88,0.00,,,0.00,WUHU216HW,2013-04-28 13:48:00,
2013-04-28 06:54:00,50.4,47.3,29.98,WNW,293,0.2,0.2,89,0.00,,,0.00,WUHU216HW,2013-04-28 13:54:00,
2013-04-28 06:59:00,50.4,47.3,29.98,West,270,0.4,1.3,89,0.00,,,0.00,WUHU216HW,2013-04-28 13:59:00,
2013-04-28 07:04:00,50.4,47.3,29.98,WNW,293,0.4,1.3,89,0.00,,,0.00,WUHU216HW,2013-04-28 14:04:00,
2013-04-28 07:09:00,50.4,47.5,29.98,WNW,293,0.4,1.6,90,0.00,,,0.00,WUHU216HW,2013-04-28 14:09:00,
2013-04-28 07:14:00,50.4,47.5,29.98,WNW,293,0.4,1.6,90,0.00,,,0.00,WUHU216HW,2013-04-28 14:14:00,
2013-04-28 07:19:00,50.6,47.7,29.98,NW,315,0.0,1.1,90,0.00,,,0.00,WUHU216HW,2013-04-28 14:19:00,
2013-04-28 07:24:00,50.4,47.5,29.98,NW,315,0.0,0.7,90,0.00,,,0.00,WUHU216HW,2013-04-28 14:24:00,
2013-04-28 07:29:00,50.2,47.6,29.98,NW,315,0.4,0.4,91,0.00,,,0.00,WUHU216HW,2013-04-28 14:29:00,
2013-04-28 07:34:00,50.4,47.8,29.98,NNW,338,0.2,0.9,91,0.00,,,0.00,WUHU216HW,2013-04-28 14:34:00,
2013-04-28 07:39:00,50.4,47.8,29.97,NNW,338,0.2,0.9,91,0.00,,,0.00,WUHU216HW,2013-04-28 14:39:00,
2013-04-28 07:44:00,50.6,48.0,29.98,WSW,248,0.4,0.4,91,0.00,,,0.00,WUHU216HW,2013-04-28 14:44:00,
2013-04-28 07:49:00,50.8,47.9,29.98,South,180,0.0,0.4,90,0.00,,,0.00,WUHU216HW,2013-04-28 14:49:00,
2013-04-28 07:54:00,51.1,48.2,29.97,SW,225,1.6,1.6,90,0.00,,,0.00,WUHU216HW,2013-04-28 14:54:00,
2013-04-28 07:59:00,51.1,48.2,29.97,SW,225,0.4,1.6,90,0.00,,,0.00,WUHU216HW,2013-04-28 14:59:00,
2013-04-28 08:04:00,51.5,48.3,29.97,South,180,0.2,1.1,89,0.00,,,0.00,WUHU216HW,2013-04-28 15:04:00,
2013-04-28 08:09:00,51.7,48.5,29.97,South,180,0.9,1.1,89,0.00,,,0.00,WUHU216HW,2013-04-28 15:09:00,
2013-04-28 08:14:00,52.0,49.1,29.97,West,270,1.1,1.1,90,0.00,,,0.00,WUHU216HW,2013-04-28 15:14:00,
2013-04-28 08:20:00,52.0,49.1,29.98,South,180,0.4,1.1,90,0.00,,,0.00,WUHU216HW,2013-04-28 15:20:00,
2013-04-28 08:25:00,52.2,49.1,29.98,South,180,0.4,0.7,89,0.00,,,0.00,WUHU216HW,2013-04-28 15:25:00,
2013-04-28 08:30:00,52.6,49.4,29.98,West,270,0.4,1.6,89,0.00,,,0.00,WUHU216HW,2013-04-28 15:30:00,
2013-04-28 08:35:00,52.9,49.8,29.98,West,270,0.0,1.6,89,0.00,,,0.00,WUHU216HW,2013-04-28 15:35:00,
2013-04-28 08:40:00,52.9,49.8,29.98,WSW,248,0.2,1.1,89,0.00,,,0.00,WUHU216HW,2013-04-28 15:40:00,
2013-04-28 08:45:00,53.5,50.0,29.98,West,270,0.2,0.7,88,0.00,,,0.00,WUHU216HW,2013-04-28 15:45:00,
2013-04-28 08:50:00,53.6,50.1,29.97,WNW,293,0.4,1.8,88,0.00,,,0.00,WUHU216HW,2013-04-28 15:50:00,
2013-04-28 08:55:00,54.4,50.9,29.97,WNW,293,0.2,1.8,88,0.00,,,0.00,WUHU216HW,2013-04-28 15:55:00,
2013-04-28 09:00:00,55.3,51.4,29.97,WNW,293,0.0,1.1,87,0.00,,,0.00,WUHU216HW,2013-04-28 16:00:00,
2013-04-28 09:05:00,55.8,51.7,29.97,NNE,23,1.6,1.6,86,0.00,,,0.00,WUHU216HW,2013-04-28 16:05:00,
2013-04-28 09:10:00,56.5,52.0,29.97,South,180,0.7,1.6,85,0.00,,,0.00,WUHU216HW,2013-04-28 16:10:00,
2013-04-28 09:15:00,57.1,52.2,29.98,NW,315,0.4,1.3,84,0.00,,,0.00,WUHU216HW,2013-04-28 16:15:00,
2013-04-28 09:20:00,57.1,51.9,29.98,East,90,0.7,1.3,83,0.00,,,0.00,WUHU216HW,2013-04-28 16:20:00,
2013-04-28 09:25:00,57.2,51.8,29.98,South,180,0.7,0.9,82,0.00,,,0.00,WUHU216HW,2013-04-28 16:25:00,
2013-04-28 09:30:00,56.7,51.2,29.98,SSW,203,1.8,1.8,82,0.00,,,0.00,WUHU216HW,2013-04-28 16:30:00,
2013-04-28 09:35:00,56.5,51.4,29.98,SSW,203,0.2,1.8,83,0.00,,,0.00,WUHU216HW,2013-04-28 16:35:00,
2013-04-28 09:40:00,56.5,51.0,29.98,SSW,203,0.7,1.1,82,0.00,,,0.00,WUHU216HW,2013-04-28 16:40:00,
2013-04-28 09:45:00,56.9,51.4,29.98,SSW,203,1.8,1.8,82,0.00,,,0.00,WUHU216HW,2013-04-28 16:45:00,
2013-04-28 09:50:00,57.4,51.9,29.98,SE,135,0.9,1.8,82,0.00,,,0.00,WUHU216HW,2013-04-28 16:50:00,
2013-04-28 09:56:00,58.5,52.8,29.98,WSW,248,0.9,1.3,81,0.00,,,0.00,WUHU216HW,2013-04-28 16:56:00,
2013-04-28 10:01:00,59.2,53.5,29.98,SSW,203,1.8,1.8,81,0.00,,,0.00,WUHU216HW,2013-04-28 17:01:00,
2013-04-28 10:06:00,59.4,52.6,29.98,NW,315,1.3,1.8,78,0.00,,,0.00,WUHU216HW,2013-04-28 17:06:00,
2013-04-28 10:11:00,59.4,51.8,29.98,NW,315,0.4,1.6,76,0.00,,,0.00,WUHU216HW,2013-04-28 17:11:00,
2013-04-28 10:16:00,59.6,52.4,29.98,NW,315,0.4,1.1,77,0.00,,,0.00,WUHU216HW,2013-04-28 17:16:00,
2013-04-28 10:21:00,60.1,52.6,29.98,West,270,2.7,2.7,76,0.00,,,0.00,WUHU216HW,2013-04-28 17:21:00,
2013-04-28 10:26:00,60.5,52.6,29.98,NW,315,1.8,2.7,75,0.00,,,0.00,WUHU216HW,2013-04-28 17:26:00,
2013-04-28 10:31:00,60.7,52.7,29.97,NW,315,1.3,1.8,75,0.00,,,0.00,WUHU216HW,2013-04-28 17:31:00,
2013-04-28 10:36:00,61.2,53.3,29.98,NW,315,1.1,1.6,75,0.00,,,0.00,WUHU216HW,2013-04-28 17:36:00,
2013-04-28 10:41:00,61.7,53.0,29.97,NW,315,0.9,1.8,73,0.00,,,0.00,WUHU216HW,2013-04-28 17:41:00,
2013-04-28 10:46:00,61.9,53.2,29.97,West,270,1.1,1.8,73,0.00,,,0.00,WUHU216HW,2013-04-28 17:46:00,
2013-04-28 10:51:00,63.0,53.8,29.97,West,270,0.9,2.0,72,0.00,,,0.00,WUHU216HW,2013-04-28 17:51:00,
2013-04-28 10:56:00,63.7,54.2,29.97,WSW,248,0.7,2.0,71,0.00,,,0.00,WUHU216HW,2013-04-28 17:56:00,
2013-04-28 11:01:00,64.4,54.9,29.97,SW,225,1.1,1.8,71,0.00,,,0.00,WUHU216HW,2013-04-28 18:01:00,
2013-04-28 11:06:00,64.1,53.3,29.97,NNW,338,0.4,1.8,68,0.00,,,0.00,WUHU216HW,2013-04-28 18:06:00,
2013-04-28 11:11:00,63.7,53.0,29.97,NNW,338,0.9,1.8,68,0.00,,,0.00,WUHU216HW,2013-04-28 18:11:00,
2013-04-28 11:17:00,64.4,54.1,29.97,WNW,293,0.9,1.8,69,0.00,,,0.00,WUHU216HW,2013-04-28 18:17:00,
2013-04-28 11:22:00,65.0,53.7,29.97,West,270,1.3,1.8,67,0.00,,,0.00,WUHU216HW,2013-04-28 18:22:00,
2013-04-28 11:27:00,65.7,54.0,29.96,SW,225,0.4,1.8,66,0.00,,,0.00,WUHU216HW,2013-04-28 18:27:00,
2013-04-28 11:32:00,66.1,54.4,29.96,West,270,1.1,1.8,66,0.00,,,0.00,WUHU216HW,2013-04-28 18:32:00,
2013-04-28 11:37:00,67.3,55.1,29.96,SW,225,2.5,2.5,65,0.00,,,0.00,WUHU216HW,2013-04-28 18:37:00,
2013-04-28 11:42:00,68.0,55.8,29.96,SSW,203,0.4,2.5,65,0.00,,,0.00,WUHU216HW,2013-04-28 18:42:00,
2013-04-28 11:47:00,68.8,56.5,29.96,NNE,23,1.1,2.5,65,0.00,,,0.00,WUHU216HW,2013-04-28 18:47:00,
2013-04-28 11:52:00,69.3,54.4,29.96,NW,315,1.3,2.5,59,0.00,,,0.00,WUHU216HW,2013-04-28 18:52:00,
2013-04-28 11:57:00,69.5,55.1,29.96,WNW,293,2.5,2.5,60,0.00,,,0.00,WUHU216HW,2013-04-28 18:57:00,
2013-04-28 12:02:00,69.7,55.7,29.96,SSE,158,2.0,2.5,61,0.00,,,0.00,WUHU216HW,2013-04-28 19:02:00,
2013-04-28 12:07:00,70.2,56.2,29.96,SE,135,1.1,2.5,61,0.00,,,0.00,WUHU216HW,2013-04-28 19:07:00,
2013-04-28 12:12:00,70.6,54.5,29.96,WSW,248,0.9,2.7,57,0.00,,,0.00,WUHU216HW,2013-04-28 19:12:00,
2013-04-28 12:17:00,70.7,54.7,29.95,North,0,0.7,2.7,57,0.00,,,0.00,WUHU216HW,2013-04-28 19:17:00,
2013-04-28 12:22:00,71.1,54.5,29.95,WSW,248,1.6,2.5,56,0.00,,,0.00,WUHU216HW,2013-04-28 19:22:00,
2013-04-28 12:27:00,71.8,55.7,29.95,SSW,203,1.3,2.5,57,0.00,,,0.00,WUHU216HW,2013-04-28 19:27:00,
2013-04-28 12:32:00,72.4,55.7,29.95,WSW,248,1.3,2.0,56,0.00,,,0.00,WUHU216HW,2013-04-28 19:32:00,
2013-04-28 12:37:00,73.1,55.8,29.94,SW,225,2.0,2.7,55,0.00,,,0.00,WUHU216HW,2013-04-28 19:37:00,
2013-04-28 12:42:00,73.6,56.3,29.94,NNW,338,1.1,2.7,55,0.00,,,0.00,WUHU216HW,2013-04-28 19:42:00,
2013-04-28 12:48:00,73.6,55.8,29.93,WNW,293,1.1,2.0,54,0.00,,,0.00,WUHU216HW,2013-04-28 19:48:00,
2013-04-28 12:53:00,73.8,55.5,29.93,NNW,338,0.4,1.8,53,0.00,,,0.00,WUHU216HW,2013-04-28 19:53:00,
2013-04-28 12:58:00,74.3,56.5,29.93,NNE,23,1.1,2.5,54,0.00,,,0.00,WUHU216HW,2013-04-28 19:58:00,
2013-04-28 13:03:00,75.2,57.4,29.92,WSW,248,0.4,2.5,54,0.00,,,0.00,WUHU216HW,2013-04-28 20:03:00,
2013-04-28 13:08:00,75.8,57.0,29.92,SW,225,2.7,2.7,52,0.00,,,0.00,WUHU216HW,2013-04-28 20:08:00,
2013-04-28 13:13:00,76.1,57.2,29.92,ENE,68,1.3,3.4,52,0.00,,,0.00,WUHU216HW,2013-04-28 20:13:00,
2013-04-28 13:18:00,76.5,57.6,29.92,SW,225,1.3,3.4,52,0.00,,,0.00,WUHU216HW,2013-04-28 20:18:00,
2013-04-28 13:23:00,77.2,58.2,29.91,WSW,248,1.1,3.4,52,0.00,,,0.00,WUHU216HW,2013-04-28 20:23:00,
2013-04-28 13:28:00,77.9,58.9,29.91,SE,135,3.6,3.6,52,0.00,,,0.00,WUHU216HW,2013-04-28 20:28:00,
2013-04-28 13:33:00,78.8,58.7,29.91,WSW,248,1.6,3.6,50,0.00,,,0.00,WUHU216HW,2013-04-28 20:33:00,
2013-04-28 13:38:00,79.2,59.1,29.91,SSE,158,1.8,4.7,50,0.00,,,0.00,WUHU216HW,2013-04-28 20:38:00,
2013-04-28 13:43:00,79.4,56.7,29.91,SW,225,1.1,4.7,46,0.00,,,0.00,WUHU216HW,2013-04-28 20:43:00,
2013-04-28 13:48:00,79.4,59.1,29.90,SE,135,0.4,3.8,50,0.00,,,0.00,WUHU216HW,2013-04-28 20:48:00,
2013-04-28 13:53:00,80.1,58.6,29.90,SSE,158,2.5,3.4,48,0.00,,,0.00,WUHU216HW,2013-04-28 20:53:00,
2013-04-28 13:58:00,80.3,58.8,29.90,ESE,113,1.1,3.4,48,0.00,,,0.00,WUHU216HW,2013-04-28 20:58:00,
2013-04-28 14:03:00,80.6,59.0,29.90,SE,135,2.0,4.7,48,0.00,,,0.00,WUHU216HW,2013-04-28 21:03:00,
2013-04-28 14:08:00,81.2,59.0,29.89,SSE,158,4.0,4.7,47,0.00,,,0.00,WUHU216HW,2013-04-28 21:08:00,
2013-04-28 14:14:00,81.4,57.9,29.89,SSE,158,1.8,4.0,45,0.00,,,0.00,WUHU216HW,2013-04-28 21:14:00,
2013-04-28 14:19:00,81.4,59.1,29.89,SSE,158,0.9,4.0,47,0.00,,,0.00,WUHU216HW,2013-04-28 21:19:00,
2013-04-28 14:24:00,81.5,56.8,29.89,West,270,0.7,4.0,43,0.00,,,0.00,WUHU216HW,2013-04-28 21:24:00,
2013-04-28 14:29:00,81.7,58.9,29.89,South,180,1.1,2.5,46,0.00,,,0.00,WUHU216HW,2013-04-28 21:29:00,
2013-04-28 14:34:00,81.7,57.6,29.89,SW,225,1.8,2.9,44,0.00,,,0.00,WUHU216HW,2013-04-28 21:34:00,
2013-04-28 14:39:00,81.2,57.2,29.89,NE,45,0.7,2.9,44,0.00,,,0.00,WUHU216HW,2013-04-28 21:39:00,
2013-04-28 14:44:00,81.7,57.6,29.88,WSW,248,1.8,2.7,44,0.00,,,0.00,WUHU216HW,2013-04-28 21:44:00,
2013-04-28 14:49:00,82.1,56.7,29.88,SW,225,3.4,3.4,42,0.00,,,0.00,WUHU216HW,2013-04-28 21:49:00,
2013-04-28 14:54:00,81.9,56.5,29.87,NW,315,1.1,3.4,42,0.00,,,0.00,WUHU216HW,2013-04-28 21:54:00,
2013-04-28 14:59:00,81.4,56.1,29.87,West,270,2.7,2.7,42,0.00,,,0.00,WUHU216HW,2013-04-28 21:59:00,
2013-04-28 15:04:00,81.7,57.0,29.87,NNW,338,2.0,2.7,43,0.00,,,0.00,WUHU216HW,2013-04-28 22:04:00,
2013-04-28 15:09:00,81.5,58.1,29.86,NNW,338,1.8,3.4,45,0.00,,,0.00,WUHU216HW,2013-04-28 22:09:00,
2013-04-28 15:14:00,81.4,57.2,29.86,NNW,338,1.6,3.4,44,0.00,,,0.00,WUHU216HW,2013-04-28 22:14:00,
2013-04-28 15:19:00,81.0,58.1,29.86,West,270,1.8,2.5,46,0.00,,,0.00,WUHU216HW,2013-04-28 22:19:00,
2013-04-28 15:24:00,81.9,57.2,29.86,NW,315,2.2,2.5,43,0.00,,,0.00,WUHU216HW,2013-04-28 22:24:00,
2013-04-28 15:29:00,81.9,57.2,29.86,NW,315,0.9,2.7,43,0.00,,,0.00,WUHU216HW,2013-04-28 22:29:00,
2013-04-28 15:34:00,81.2,57.2,29.86,NW,315,1.6,2.7,44,0.00,,,0.00,WUHU216HW,2013-04-28 22:34:00,
2013-04-28 15:39:00,80.8,56.8,29.85,NW,315,1.8,2.2,44,0.00,,,0.00,WUHU216HW,2013-04-28 22:39:00,
2013-04-28 15:44:00,80.6,56.6,29.85,North,0,0.4,2.2,44,0.00,,,0.00,WUHU216HW,2013-04-28 22:44:00,
2013-04-28 15:50:00,81.2,57.7,29.85,SW,225,1.3,2.9,45,0.00,,,0.00,WUHU216HW,2013-04-28 22:50:00,
2013-04-28 15:55:00,81.7,57.0,29.85,SW,225,2.9,2.9,43,0.00,,,0.00,WUHU216HW,2013-04-28 22:55:00,
2013-04-28 16:00:00,82.3,57.5,29.84,NNW,338,2.0,2.9,43,0.00,,,0.00,WUHU216HW,2013-04-28 23:00:00,
2013-04-28 16:05:00,81.9,56.5,29.85,NNW,338,0.7,3.4,42,0.00,,,0.00,WUHU216HW,2013-04-28 23:05:00,
2013-04-28 16:10:00,81.7,57.0,29.84,NNW,338,1.6,3.4,43,0.00,,,0.00,WUHU216HW,2013-04-28 23:10:00,
2013-04-28 16:15:00,81.7,56.3,29.84,WSW,248,3.4,5.4,42,0.00,,,0.00,WUHU216HW,2013-04-28 23:15:00,
2013-04-28 16:20:00,81.9,57.2,29.84,NW,315,1.3,5.4,43,0.00,,,0.00,WUHU216HW,2013-04-28 23:20:00,
2013-04-28 16:25:00,81.9,56.5,29.84,NNW,338,1.8,4.0,42,0.00,,,0.00,WUHU216HW,2013-04-28 23:25:00,
2013-04-28 16:30:00,81.4,57.2,29.84,West,270,1.8,4.0,44,0.00,,,0.00,WUHU216HW,2013-04-28 23:30:00,
2013-04-28 16:35:00,81.9,56.5,29.84,NNE,23,1.1,3.1,42,0.00,,,0.00,WUHU216HW,2013-04-28 23:35:00,
2013-04-28 16:40:00,85.1,60.1,29.83,WSW,248,0.2,3.1,43,0.00,,,0.00,WUHU216HW,2013-04-28 23:40:00,
2013-04-28 16:45:00,87.7,59.7,29.83,West,270,2.5,2.5,39,0.00,,,0.00,WUHU216HW,2013-04-28 23:45:00,
2013-04-28 16:50:00,89.8,60.7,29.83,WSW,248,2.0,2.5,38,0.00,,,0.00,WUHU216HW,2013-04-28 23:50:00,
2013-04-28 16:55:00,90.4,58.8,29.83,WSW,248,1.8,2.0,35,0.00,,,0.00,WUHU216HW,2013-04-28 23:55:00,
2013-04-28 17:00:00,89.8,58.3,29.83,West,270,1.8,1.8,35,0.00,,,0.00,WUHU216HW,2013-04-29 00:00:00,
2013-04-28 17:05:00,90.4,58.0,29.82,NW,315,1.1,2.7,34,0.00,,,0.00,WUHU216HW,2013-04-29 00:05:00,
2013-04-28 17:10:00,89.8,59.1,29.83,WNW,293,0.9,2.7,36,0.00,,,0.00,WUHU216HW,2013-04-29 00:10:00,
2013-04-28 17:15:00,91.1,58.7,29.83,NNW,338,1.6,3.1,34,0.00,,,0.00,WUHU216HW,2013-04-29 00:15:00,
2013-04-28 17:20:00,91.1,58.7,29.83,WNW,293,0.4,3.1,34,0.00,,,0.00,WUHU216HW,2013-04-29 00:20:00,
2013-04-28 17:25:00,91.6,60.0,29.82,West,270,1.1,3.1,35,0.00,,,0.00,WUHU216HW,2013-04-29 00:25:00,
2013-04-28 17:30:00,91.4,58.1,29.83,WNW,293,1.1,3.1,33,0.00,,,0.00,WUHU216HW,2013-04-29 00:30:00,
2013-04-28 17:35:00,89.6,58.1,29.82,NW,315,0.9,2.5,35,0.00,,,0.00,WUHU216HW,2013-04-29 00:35:00,
2013-04-28 17:41:00,87.5,58.7,29.82,NW,315,0.4,2.5,38,0.00,,,0.00,WUHU216HW,2013-04-29 00:41:00,
2013-04-28 17:46:00,90.0,59.2,29.82,SW,225,0.9,2.5,36,0.00,,,0.00,WUHU216HW,2013-04-29 00:46:00,
2013-04-28 17:51:00,88.7,58.1,29.82,WNW,293,1.1,1.6,36,0.00,,,0.00,WUHU216HW,2013-04-29 00:51:00,
2013-04-28 17:56:00,86.8,57.3,29.82,WSW,248,0.7,3.4,37,0.00,,,0.00,WUHU216HW,2013-04-29 00:56:00,
2013-04-28 18:01:00,85.9,57.3,29.82,West,270,0.7,3.4,38,0.00,,,0.00,WUHU216HW,2013-04-29 01:01:00,
2013-04-28 18:06:00,84.1,55.7,29.82,NW,315,1.1,1.6,38,0.00,,,0.00,WUHU216HW,2013-04-29 01:06:00,
2013-04-28 18:11:00,82.4,55.8,29.82,NNW,338,1.1,1.1,40,0.00,,,0.00,WUHU216HW,2013-04-29 01:11:00,
2013-04-28 18:16:00,81.7,55.8,29.82,NNW,338,1.1,1.3,41,0.00,,,0.00,WUHU216HW,2013-04-29 01:16:00,
2013-04-28 18:21:00,80.8,55.0,29.82,NNW,338,0.4,1.3,41,0.00,,,0.00,WUHU216HW,2013-04-29 01:21:00,
2013-04-28 18:26:00,80.6,55.5,29.82,NW,315,0.4,1.1,42,0.00,,,0.00,WUHU216HW,2013-04-29 01:26:00,
2013-04-28 18:31:00,80.5,55.9,29.81,NNW,338,0.4,2.0,43,0.00,,,0.00,WUHU216HW,2013-04-29 01:31:00,
2013-04-28 18:36:00,80.1,55.5,29.81,NW,315,0.7,2.0,43,0.00,,,0.00,WUHU216HW,2013-04-29 01:36:00,
2013-04-28 18:41:00,79.7,55.2,29.81,North,0,0.4,1.1,43,0.00,,,0.00,WUHU216HW,2013-04-29 01:41:00,
2013-04-28 18:46:00,79.9,55.4,29.81,NNW,338,0.0,1.1,43,0.00,,,0.00,WUHU216HW,2013-04-29 01:46:00,
2013-04-28 18:51:00,79.7,55.8,29.81,NNW,338,0.7,1.6,44,0.00,,,0.00,WUHU216HW,2013-04-29 01:51:00,
2013-04-28 18:56:00,79.0,55.2,29.81,NNW,338,0.4,1.6,44,0.00,,,0.00,WUHU216HW,2013-04-29 01:56:00,
2013-04-28 19:01:00,78.8,55.6,29.81,West,270,1.1,1.6,45,0.00,,,0.00,WUHU216HW,2013-04-29 02:01:00,
2013-04-28 19:06:00,79.0,55.8,29.81,NW,315,0.7,2.7,45,0.00,,,0.00,WUHU216HW,2013-04-29 02:06:00,
2013-04-28 19:11:00,78.5,55.3,29.81,NW,315,0.0,2.7,45,0.00,,,0.00,WUHU216HW,2013-04-29 02:11:00,
2013-04-28 19:16:00,78.1,55.6,29.81,West,270,0.7,1.3,46,0.00,,,0.00,WUHU216HW,2013-04-29 02:16:00,
2013-04-28 19:22:00,77.8,55.9,29.81,WNW,293,0.4,2.0,47,0.00,,,0.00,WUHU216HW,2013-04-29 02:22:00,
2013-04-28 19:27:00,77.4,55.5,29.81,WSW,248,0.7,2.0,47,0.00,,,0.00,WUHU216HW,2013-04-29 02:27:00,
2013-04-28 19:32:00,77.0,55.3,29.81,West,270,0.4,1.1,47,0.00,,,0.00,WUHU216HW,2013-04-29 02:32:00,
2013-04-28 19:37:00,76.5,55.4,29.81,WSW,248,1.1,1.1,48,0.00,,,0.00,WUHU216HW,2013-04-29 02:37:00,
2013-04-28 19:42:00,76.0,54.9,29.81,WSW,248,0.2,1.1,48,0.00,,,0.00,WUHU216HW,2013-04-29 02:42:00,
2013-04-28 19:47:00,75.6,54.5,29.81,West,270,0.4,1.8,48,0.00,,,0.00,WUHU216HW,2013-04-29 02:47:00,
2013-04-28 19:52:00,75.2,54.8,29.82,West,270,0.7,1.8,49,0.00,,,0.00,WUHU216HW,2013-04-29 02:52:00,
2013-04-28 19:57:00,74.7,54.3,29.82,WNW,293,0.2,0.9,49,0.00,,,0.00,WUHU216HW,2013-04-29 02:57:00,
2013-04-28 20:02:00,74.5,54.1,29.82,West,270,0.9,0.9,49,0.00,,,0.00,WUHU216HW,2013-04-29 03:02:00,
2013-04-28 20:07:00,74.3,54.5,29.81,West,270,0.2,0.9,50,0.00,,,0.00,WUHU216HW,2013-04-29 03:07:00,
2013-04-28 20:12:00,74.0,54.2,29.81,SSE,158,1.1,1.1,50,0.00,,,0.00,WUHU216HW,2013-04-29 03:12:00,
2013-04-28 20:17:00,73.3,54.0,29.81,WSW,248,0.4,1.1,51,0.00,,,0.00,WUHU216HW,2013-04-29 03:17:00,
2013-04-28 20:22:00,72.7,54.0,29.82,WSW,248,0.7,0.7,52,0.00,,,0.00,WUHU216HW,2013-04-29 03:22:00,
2013-04-28 20:27:00,72.0,53.4,29.82,SE,135,0.7,0.7,52,0.00,,,0.00,WUHU216HW,2013-04-29 03:27:00,
2013-04-28 20:32:00,71.6,53.6,29.81,SE,135,0.0,0.7,53,0.00,,,0.00,WUHU216HW,2013-04-29 03:32:00,
2013-04-28 20:37:00,71.6,53.6,29.82,SE,135,0.0,0.0,53,0.00,,,0.00,WUHU216HW,2013-04-29 03:37:00,
2013-04-28 20:42:00,71.3,53.7,29.82,SE,135,0.2,0.7,54,0.00,,,0.00,WUHU216HW,2013-04-29 03:42:00,
2013-04-28 20:47:00,70.9,53.4,29.82,SE,135,0.0,0.7,54,0.00,,,0.00,WUHU216HW,2013-04-29 03:47:00,
2013-04-28 20:52:00,70.7,53.2,29.82,SE,135,0.2,0.9,54,0.00,,,0.00,WUHU216HW,2013-04-29 03:52:00,
2013-04-28 20:57:00,70.2,53.3,29.82,SSE,158,1.1,1.1,55,0.00,,,0.00,WUHU216HW,2013-04-29 03:57:00,
2013-04-28 21:01:00,70.0,53.1,29.82,SE,135,0.4,1.3,55,0.00,,,0.00,WUHU216HW,2013-04-29 04:01:00,
2013-04-28 21:02:00,70.0,53.1,29.82,ESE,113,1.1,1.3,55,0.00,,,0.00,WUHU216HW,2013-04-29 04:02:00,
2013-04-28 21:03:00,70.0,53.1,29.82,SE,135,1.8,1.8,55,0.00,,,0.00,WUHU216HW,2013-04-29 04:03:00,
2013-04-28 21:08:00,69.7,52.7,29.83,ESE,113,0.0,2.2,55,0.00,,,0.00,WUHU216HW,2013-04-29 04:08:00,
2013-04-28 21:13:00,69.5,52.6,29.82,ESE,113,0.7,2.0,55,0.00,,,0.00,WUHU216HW,2013-04-29 04:13:00,
2013-04-28 21:18:00,69.3,52.9,29.83,SE,135,0.0,1.3,56,0.00,,,0.00,WUHU216HW,2013-04-29 04:18:00,
2013-04-28 21:23:00,69.1,52.8,29.83,SE,135,0.0,1.3,56,0.00,,,0.00,WUHU216HW,2013-04-29 04:23:00,
2013-04-28 21:28:00,68.6,53.2,29.83,NNW,338,0.0,0.7,58,0.00,,,0.00,WUHU216HW,2013-04-29 04:28:00,
2013-04-28 21:33:00,68.2,52.4,29.83,NNW,338,0.0,0.7,57,0.00,,,0.00,WUHU216HW,2013-04-29 04:33:00,
2013-04-28 21:38:00,68.0,52.2,29.84,NNW,338,0.4,0.7,57,0.00,,,0.00,WUHU216HW,2013-04-29 04:38:00,
2013-04-28 21:43:00,67.9,52.5,29.83,SE,135,0.9,1.3,58,0.00,,,0.00,WUHU216HW,2013-04-29 04:43:00,
2013-04-28 21:49:00,67.7,52.4,29.83,North,0,0.0,1.3,58,0.00,,,0.00,WUHU216HW,2013-04-29 04:49:00,
2013-04-28 21:54:00,67.3,52.5,29.83,ESE,113,0.2,1.8,59,0.00,,,0.00,WUHU216HW,2013-04-29 04:54:00,
2013-04-28 21:59:00,67.0,52.7,29.83,ESE,113,0.0,1.8,60,0.00,,,0.00,WUHU216HW,2013-04-29 04:59:00,
2013-04-28 22:04:00,66.8,52.5,29.83,ESE,113,0.0,0.7,60,0.00,,,0.00,WUHU216HW,2013-04-29 05:04:00,
2013-04-28 22:09:00,66.6,52.4,29.83,ESE,113,0.0,0.4,60,0.00,,,0.00,WUHU216HW,2013-04-29 05:09:00,
2013-04-28 22:14:00,66.6,52.4,29.83,ESE,113,0.0,0.0,60,0.00,,,0.00,WUHU216HW,2013-04-29 05:14:00,
2013-04-28 22:19:00,66.2,52.5,29.83,NNW,338,0.0,0.4,61,0.00,,,0.00,WUHU216HW,2013-04-29 05:19:00,
2013-04-28 22:24:00,66.1,51.8,29.83,NNW,338,0.0,0.4,60,0.00,,,0.00,WUHU216HW,2013-04-29 05:24:00,
2013-04-28 22:29:00,65.7,51.9,29.83,NNE,23,0.4,0.4,61,0.00,,,0.00,WUHU216HW,2013-04-29 05:29:00,
2013-04-28 22:34:00,65.5,51.8,29.83,NNE,23,0.0,0.4,61,0.00,,,0.00,WUHU216HW,2013-04-29 05:34:00,
2013-04-28 22:39:00,65.3,51.9,29.83,NNE,23,0.0,0.2,62,0.00,,,0.00,WUHU216HW,2013-04-29 05:39:00,
2013-04-28 22:44:00,65.2,51.8,29.83,NNE,23,0.0,0.0,62,0.00,,,0.00,WUHU216HW,2013-04-29 05:44:00,
2013-04-28 22:49:00,65.0,52.0,29.83,NNE,23,0.0,0.0,63,0.00,,,0.00,WUHU216HW,2013-04-29 05:49:00,
2013-04-28 22:54:00,64.8,51.8,29.83,NNE,23,0.0,0.4,63,0.00,,,0.00,WUHU216HW,2013-04-29 05:54:00,
2013-04-28 22:59:00,64.6,51.7,29.82,NNE,23,0.0,0.4,63,0.00,,,0.00,WUHU216HW,2013-04-29 05:59:00,
2013-04-28 23:04:00,64.4,51.9,29.82,NNE,23,0.0,0.0,64,0.00,,,0.00,WUHU216HW,2013-04-29 06:04:00,
2013-04-28 23:09:00,64.4,51.9,29.82,NNE,23,0.0,0.0,64,0.00,,,0.00,WUHU216HW,2013-04-29 06:09:00,
2013-04-28 23:14:00,63.9,51.5,29.82,NNE,23,0.2,0.2,64,0.00,,,0.00,WUHU216HW,2013-04-29 06:14:00,
2013-04-28 23:20:00,63.7,51.7,29.82,NNE,23,0.0,0.2,65,0.00,,,0.00,WUHU216HW,2013-04-29 06:20:00,
2013-04-28 23:25:00,63.7,51.7,29.82,NNE,23,0.2,0.2,65,0.00,,,0.00,WUHU216HW,2013-04-29 06:25:00,
2013-04-28 23:30:00,63.5,51.6,29.82,NNE,23,0.0,0.2,65,0.00,,,0.00,WUHU216HW,2013-04-29 06:30:00,
2013-04-28 23:35:00,63.4,51.4,29.82,NNE,23,0.0,0.0,65,0.00,,,0.00,WUHU216HW,2013-04-29 06:35:00,
2013-04-28 23:40:00,63.4,51.4,29.82,NNE,23,0.0,0.0,65,0.00,,,0.00,WUHU216HW,2013-04-29 06:40:00,
2013-04-28 23:45:00,63.2,51.2,29.82,ESE,113,0.4,0.7,65,0.00,,,0.00,WUHU216HW,2013-04-29 06:45:00,
2013-04-28 23:50:00,63.0,51.4,29.82,ESE,113,0.2,0.7,66,0.00,,,0.00,WUHU216HW,2013-04-29 06:50:00,
2013-04-28 23:55:00,63.0,51.4,29.82,ESE,113,0.0,0.4,66,0.00,,,0.00,WUHU216HW,2013-04-29 06:55:00,